Time;durP1;ratioP1;P1;durP2;ratioP2;P2;SDS_P1;SDS_P2;PMS_P1;PMS_P2;Temp;Humidity;BMP_temperature;BMP_pressure;BME280_temperature;BME280_humidity;BME280_pressure;Samples;Min_cycle;Max_cycle;Signal;HPM_P1;HPM_P2
2022/02/04 00:08:14;;;;;;;14.37;12.70;;;7.50;99.90;;;;;;5054090;28;20187;-67
2022/02/04 00:23:44;;;;;;;13.93;12.43;;;7.60;99.90;;;;;;5053379;28;20700;-67
2022/02/04 00:26:18;;;;;;;14.80;13.30;;;7.60;99.90;;;;;;5057251;28;20163;-68
2022/02/04 00:29:13;;;;;;;14.23;12.90;;;7.60;99.90;;;;;;5053612;28;20214;-67
2022/02/04 00:31:37;;;;;;;13.47;12.23;;;7.60;99.90;;;;;;5065628;28;20178;-67
2022/02/04 00:34:10;;;;;;;13.23;11.83;;;7.60;99.90;;;;;;5073273;28;20285;-68
2022/02/04 00:36:47;;;;;;;14.37;12.87;;;7.60;99.90;;;;;;5059702;28;20175;-67
2022/02/04 00:39:19;;;;;;;14.93;13.43;;;7.60;99.90;;;;;;5053281;28;20193;-68
2022/02/04 00:41:45;;;;;;;13.67;12.30;;;7.60;99.90;;;;;;5067189;28;20181;-67
2022/02/04 00:44:19;;;;;;;15.57;14.10;;;7.60;99.90;;;;;;5055101;28;20206;-68
2022/02/04 00:54:57;;;;;;;13.47;12.03;;;7.70;99.90;;;;;;5050690;28;20183;-67
2022/02/04 01:25:54;;;;;;;12.23;11.13;;;7.60;99.90;;;;;;5071762;28;20181;-67
2022/02/04 01:27:20;;;;;;;12.10;11.00;;;7.60;99.90;;;;;;5058479;28;20244;-67
2022/02/04 01:29:58;;;;;;;13.00;11.80;;;7.60;99.90;;;;;;5072230;28;20631;-68
2022/02/04 01:32:23;;;;;;;13.03;11.73;;;7.60;99.90;;;;;;5068305;28;20681;-68
2022/02/04 01:34:49;;;;;;;13.30;11.87;;;7.60;99.90;;;;;;5072106;28;20174;-67
2022/02/04 01:37:15;;;;;;;11.93;10.73;;;7.60;99.90;;;;;;5046060;28;20210;-67
2022/02/04 01:39:41;;;;;;;11.30;10.30;;;7.60;99.90;;;;;;5052287;28;20190;-67
2022/02/04 01:42:07;;;;;;;11.03;10.03;;;7.70;99.90;;;;;;5056631;28;20186;-67
2022/02/04 01:44:33;;;;;;;10.70;9.90;;;7.70;99.90;;;;;;5072021;28;20213;-67
2022/02/04 01:46:59;;;;;;;10.57;9.67;;;7.70;99.90;;;;;;5067484;28;20191;-67
2022/02/04 01:49:27;;;;;;;11.20;10.23;;;7.70;99.90;;;;;;5051863;28;20202;-67
2022/02/04 01:51:52;;;;;;;11.67;10.67;;;7.80;99.90;;;;;;5069088;28;20174;-67
2022/02/04 01:54:18;;;;;;;10.93;10.03;;;7.80;99.90;;;;;;5071858;28;20189;-67
2022/02/04 01:56:45;;;;;;;11.43;10.43;;;7.70;99.90;;;;;;5059775;28;20202;-67
2022/02/04 01:59:10;;;;;;;11.03;10.23;;;7.70;99.90;;;;;;5053358;28;20551;-67
2022/02/04 02:01:36;;;;;;;10.80;9.90;;;7.70;99.90;;;;;;5071629;28;20180;-67
2022/02/04 02:04:04;;;;;;;10.97;9.70;;;7.70;99.90;;;;;;5070893;28;20279;-66
2022/02/04 02:06:41;;;;;;;10.80;9.90;;;7.70;99.90;;;;;;5071653;28;20174;-67
2022/02/04 02:09:07;;;;;;;12.43;11.33;;;7.70;99.90;;;;;;5040232;28;20252;-66
2022/02/04 02:11:32;;;;;;;11.20;10.33;;;7.70;99.90;;;;;;5051594;28;20206;-67
2022/02/04 02:13:58;;;;;;;11.23;10.20;;;7.70;99.90;;;;;;5062074;28;20644;-67
2022/02/04 02:16:55;;;;;;;10.97;10.17;;;7.70;99.90;;;;;;5071401;28;20174;-67
2022/02/04 02:54:28;;;;;;;10.53;9.73;;;7.70;99.90;;;;;;5051285;28;20256;-68
2022/02/04 02:59:32;;;;;;;10.23;9.50;;;7.80;99.90;;;;;;5051183;28;20175;-68
2022/02/04 03:01:58;;;;;;;10.67;9.87;;;7.80;99.90;;;;;;5056565;28;20201;-66
2022/02/04 03:04:23;;;;;;;10.50;9.70;;;7.80;99.90;;;;;;5071076;28;20283;-67
2022/02/04 03:06:49;;;;;;;10.77;9.77;;;7.80;99.90;;;;;;5067108;28;20682;-66
2022/02/04 03:09:17;;;;;;;11.13;10.43;;;7.80;99.90;;;;;;5050963;28;20175;-67
2022/02/04 03:11:42;;;;;;;11.47;10.70;;;7.80;99.90;;;;;;5052784;28;20199;-67
2022/02/04 03:14:08;;;;;;;12.53;11.50;;;7.90;99.90;;;;;;5070713;28;20679;-67
2022/02/04 03:16:36;;;;;;;12.13;11.23;;;7.90;99.90;;;;;;5052374;28;20270;-66
2022/02/04 03:19:04;;;;;;;11.70;10.70;;;7.90;99.90;;;;;;5051006;28;20187;-67
2022/02/04 03:21:38;;;;;;;11.17;10.27;;;7.90;99.90;;;;;;5069346;28;20632;-67
2022/02/04 03:24:09;;;;;;;10.00;9.10;;;7.90;99.90;;;;;;5074679;28;20247;-67
2022/02/04 03:26:48;;;;;;;9.90;9.20;;;7.90;99.90;;;;;;5057468;28;20219;-66
2022/02/04 03:29:18;;;;;;;10.83;9.83;;;7.90;99.90;;;;;;5054708;28;20175;-67
2022/02/04 03:31:49;;;;;;;10.00;9.30;;;7.90;99.90;;;;;;5037580;28;20171;-67
2022/02/04 03:34:14;;;;;;;10.73;9.73;;;7.90;99.90;;;;;;5036449;28;20228;-66
2022/02/04 03:36:41;;;;;;;11.20;10.17;;;7.90;99.90;;;;;;5072969;28;20182;-67
2022/02/04 03:39:06;;;;;;;10.53;9.63;;;7.90;99.90;;;;;;5074463;28;20642;-66
2022/02/04 03:41:32;;;;;;;11.40;10.50;;;7.90;99.90;;;;;;5057095;28;20178;-66
2022/02/04 03:43:58;;;;;;;11.23;10.43;;;7.90;99.90;;;;;;5053995;28;20198;-66
2022/02/04 03:46:23;;;;;;;11.23;10.33;;;7.90;99.90;;;;;;5069071;28;20525;-67
2022/02/04 03:48:49;;;;;;;10.70;9.90;;;7.90;99.90;;;;;;5074469;28;20616;-66
2022/02/04 03:51:14;;;;;;;11.53;10.63;;;7.90;99.90;;;;;;5060955;28;20175;-66
2022/02/04 03:53:40;;;;;;;10.97;10.03;;;7.90;99.90;;;;;;5053915;28;20213;-66
2022/02/04 03:56:06;;;;;;;11.23;10.43;;;7.90;99.90;;;;;;5039289;28;20189;-67
2022/02/04 03:58:36;;;;;;;9.83;8.90;;;7.80;99.90;;;;;;5054171;28;20191;-67
2022/02/04 04:01:02;;;;;;;10.23;9.47;;;7.80;99.90;;;;;;5063961;28;20178;-66
2022/02/04 04:03:28;;;;;;;10.30;9.40;;;7.80;99.90;;;;;;5066356;28;20203;-66
2022/02/04 04:05:54;;;;;;;9.63;8.93;;;7.80;99.90;;;;;;5053036;28;20169;-66
2022/02/04 04:08:20;;;;;;;10.60;9.73;;;7.80;99.90;;;;;;5057753;28;20625;-66
2022/02/04 04:10:46;;;;;;;9.70;8.80;;;7.80;99.90;;;;;;5074019;28;20232;-67
2022/02/04 04:13:13;;;;;;;10.63;9.73;;;7.80;99.90;;;;;;5070714;28;20648;-67
2022/02/04 04:15:39;;;;;;;11.10;10.20;;;7.80;99.90;;;;;;5053728;28;20174;-66
2022/02/04 04:18:05;;;;;;;12.03;11.03;;;7.80;99.90;;;;;;5054424;28;20207;-65
2022/02/04 04:20:31;;;;;;;12.67;11.07;;;7.80;99.90;;;;;;5054214;28;20529;-66
2022/02/04 04:22:58;;;;;;;10.83;9.77;;;7.80;99.90;;;;;;5053225;28;20171;-66
2022/02/04 04:25:23;;;;;;;11.63;10.43;;;7.80;99.90;;;;;;5054552;28;20253;-66
2022/02/04 04:27:52;;;;;;;11.30;9.93;;;7.80;99.90;;;;;;5073373;28;20288;-67
2022/02/04 04:30:19;;;;;;;16.73;12.03;;;7.80;99.90;;;;;;5071962;28;20176;-66
2022/02/04 04:32:46;;;;;;;16.63;11.53;;;7.80;99.90;;;;;;5055023;28;20190;-66
2022/02/04 04:35:15;;;;;;;18.83;12.40;;;7.80;99.90;;;;;;5056895;28;20181;-67
2022/02/04 04:38:30;;;;;;;13.77;11.73;;;7.80;99.90;;;;;;5053224;28;20620;-67
2022/02/04 05:31:17;;;;;;;9.93;9.23;;;8.00;99.90;;;;;;5072596;28;20253;-67
2022/02/04 05:33:42;;;;;;;10.23;9.43;;;8.00;99.90;;;;;;5071469;28;20174;-66
2022/02/04 05:36:09;;;;;;;8.77;8.27;;;8.00;99.90;;;;;;5052721;28;20186;-66
2022/02/04 05:38:36;;;;;;;9.10;8.50;;;8.00;99.90;;;;;;5051615;28;20195;-67
2022/02/04 05:41:03;;;;;;;9.33;8.73;;;8.00;99.90;;;;;;5069714;28;20184;-67
2022/02/04 05:43:32;;;;;;;12.43;11.33;;;8.00;99.90;;;;;;5071017;28;20194;-67
2022/02/04 05:48:24;;;;;;;10.37;9.53;;;8.00;99.90;;;;;;5052197;28;20186;-67
2022/02/04 05:51:07;;;;;;;12.00;11.00;;;8.00;99.90;;;;;;5066895;28;20631;-67
2022/02/04 05:53:45;;;;;;;10.27;9.47;;;8.00;99.90;;;;;;5071540;28;20646;-67
2022/02/04 05:56:24;;;;;;;10.10;9.40;;;7.90;99.90;;;;;;5054510;28;20213;-67
2022/02/04 06:22:44;;;;;;;7.87;7.37;;;7.90;99.90;;;;;;5051350;28;20178;-66
2022/02/04 06:25:11;;;;;;;8.80;8.30;;;7.90;99.90;;;;;;5064736;28;20217;-66
2022/02/04 06:27:37;;;;;;;9.87;9.17;;;7.90;99.90;;;;;;5071398;28;20182;-66
2022/02/04 06:30:05;;;;;;;9.27;8.67;;;7.90;99.90;;;;;;5059174;28;20313;-67
2022/02/04 06:32:31;;;;;;;9.60;9.00;;;7.90;99.90;;;;;;5052104;28;20210;-66
2022/02/04 06:34:58;;;;;;;8.83;8.33;;;7.90;99.90;;;;;;5051397;28;20167;-66
2022/02/04 06:37:24;;;;;;;7.73;7.30;;;7.90;99.90;;;;;;5034821;28;20687;-66
2022/02/04 06:39:50;;;;;;;7.67;7.17;;;7.90;99.90;;;;;;5071272;28;20170;-66
2022/02/04 06:42:21;;;;;;;7.00;6.60;;;7.90;99.90;;;;;;5052719;28;20177;-66
2022/02/04 06:44:47;;;;;;;8.20;7.60;;;7.90;99.90;;;;;;5051166;28;20292;-66
2022/02/04 06:47:12;;;;;;;7.90;7.40;;;7.90;99.90;;;;;;5051230;28;20214;-66
2022/02/04 06:49:38;;;;;;;7.87;7.47;;;7.90;99.90;;;;;;5051501;28;20600;-66
2022/02/04 06:52:04;;;;;;;7.67;7.20;;;7.90;99.90;;;;;;5051128;28;20705;-66
2022/02/04 06:54:31;;;;;;;8.43;7.83;;;7.80;99.90;;;;;;5068689;28;20182;-66
2022/02/04 06:56:56;;;;;;;7.93;7.50;;;7.80;99.90;;;;;;5072399;28;20197;-66
2022/02/04 06:59:22;;;;;;;9.30;8.60;;;7.80;99.90;;;;;;5075500;28;20590;-66
2022/02/04 07:01:48;;;;;;;8.67;8.03;;;7.70;99.90;;;;;;5073261;28;20172;-66
2022/02/04 07:04:14;;;;;;;9.63;8.90;;;7.80;99.90;;;;;;5054930;28;20256;-66
2022/02/04 07:06:43;;;;;;;9.73;9.03;;;7.70;99.90;;;;;;5054903;28;20174;-66
2022/02/04 07:14:23;;;;;;;10.10;9.37;;;7.60;99.90;;;;;;5054441;28;20601;-65
2022/02/04 07:22:05;;;;;;;10.90;10.00;;;7.50;99.90;;;;;;5074376;28;20313;-66
2022/02/04 07:24:30;;;;;;;10.90;9.97;;;7.50;99.90;;;;;;5067449;28;20206;-65
2022/02/04 07:26:56;;;;;;;9.97;9.10;;;7.50;99.90;;;;;;5074489;28;20187;-65
2022/02/04 07:29:22;;;;;;;10.40;9.47;;;7.40;99.90;;;;;;5072936;28;20521;-66
2022/02/04 07:31:49;;;;;;;10.60;9.60;;;7.50;99.90;;;;;;5058934;28;20187;-66
2022/02/04 07:41:59;;;;;;;10.57;9.63;;;7.60;99.90;;;;;;5074131;28;20166;-65
2022/02/04 07:44:25;;;;;;;10.40;9.50;;;7.60;99.90;;;;;;5054357;28;20260;-65
2022/02/04 07:46:50;;;;;;;10.73;9.80;;;7.60;99.90;;;;;;5036262;28;20222;-66
2022/02/04 07:49:16;;;;;;;10.40;9.60;;;7.70;99.90;;;;;;5053776;28;20308;-66
2022/02/04 07:51:41;;;;;;;8.70;8.00;;;7.70;99.90;;;;;;5074066;28;20605;-66
2022/02/04 07:54:08;;;;;;;9.47;8.57;;;7.80;99.90;;;;;;5057587;28;20190;-65
2022/02/04 07:56:34;;;;;;;8.73;8.00;;;7.90;99.90;;;;;;5054051;28;20183;-67
2022/02/04 07:59:06;;;;;;;9.53;8.73;;;7.90;99.90;;;;;;5068141;28;20712;-66
2022/02/04 08:01:32;;;;;;;9.27;8.67;;;7.90;99.90;;;;;;5055654;28;20189;-66
2022/02/04 08:04:07;;;;;;;10.20;9.23;;;7.90;99.90;;;;;;5059296;28;20198;-65
2022/02/04 08:06:38;;;;;;;10.37;9.50;;;8.00;99.90;;;;;;5053055;28;20193;-66
2022/02/04 08:09:17;;;;;;;9.33;8.73;;;8.10;99.90;;;;;;5039791;28;20178;-65
2022/02/04 08:17:04;;;;;;;9.83;8.83;;;8.20;99.90;;;;;;5072500;28;20582;-65
2022/02/04 08:27:35;;;;;;;8.70;8.10;;;8.30;99.90;;;;;;5054307;28;20193;-66
2022/02/04 08:32:35;;;;;;;9.17;8.53;;;8.30;99.90;;;;;;5068089;28;20167;-67
2022/02/04 08:55:59;;;;;;;8.03;7.50;;;8.80;99.90;;;;;;5073182;28;20257;-67
2022/02/04 08:58:40;;;;;;;7.90;7.40;;;8.80;99.90;;;;;;5054075;28;20285;-68
2022/02/04 09:01:24;;;;;;;7.60;7.20;;;8.80;99.90;;;;;;5052648;28;20257;-66
2022/02/04 09:04:04;;;;;;;8.10;7.60;;;8.90;99.90;;;;;;5052707;28;20557;-67
2022/02/04 09:06:37;;;;;;;7.23;6.80;;;9.00;99.90;;;;;;5054679;28;20246;-66
2022/02/04 09:09:05;;;;;;;7.57;7.17;;;9.10;99.90;;;;;;5065489;28;20171;-66
2022/02/04 09:19:48;;;;;;;6.90;6.50;;;9.50;99.90;;;;;;5052011;28;20224;-65
2022/02/04 09:22:21;;;;;;;6.67;6.37;;;9.50;99.90;;;;;;5066190;28;20193;-67
2022/02/04 09:24:48;;;;;;;6.53;6.23;;;9.60;99.90;;;;;;5072734;28;20695;-67
2022/02/04 09:27:14;;;;;;;6.40;6.00;;;9.70;99.90;;;;;;5058362;28;20206;-67
2022/02/04 09:29:40;;;;;;;6.90;6.50;;;9.70;99.90;;;;;;5052483;28;20175;-67
2022/02/04 09:32:06;;;;;;;6.87;6.47;;;9.70;99.90;;;;;;5063740;28;20206;-67
2022/02/04 09:34:32;;;;;;;6.83;6.43;;;9.70;99.90;;;;;;5054397;28;20186;-67
2022/02/04 09:36:57;;;;;;;7.33;6.77;;;9.80;99.90;;;;;;5061666;28;20706;-67
2022/02/04 09:39:29;;;;;;;7.50;7.00;;;9.90;99.90;;;;;;5089041;27;20561;-67
2022/02/04 09:41:55;;;;;;;6.50;6.10;;;9.90;99.90;;;;;;5087052;28;20177;-64
2022/02/04 09:44:21;;;;;;;6.73;6.33;;;10.00;99.90;;;;;;5089146;28;20178;-67
2022/02/04 09:46:46;;;;;;;6.90;6.50;;;10.00;99.90;;;;;;5088747;28;20201;-67
2022/02/04 09:49:25;;;;;;;7.03;6.60;;;10.00;99.90;;;;;;5088754;28;20181;-67
2022/02/04 10:19:37;;;;;;;6.13;5.83;;;10.10;99.90;;;;;;5068937;28;20174;-67
2022/02/04 10:22:04;;;;;;;6.63;6.33;;;10.10;99.90;;;;;;5088015;28;20664;-67
2022/02/04 10:24:32;;;;;;;6.40;6.10;;;10.10;99.90;;;;;;5087135;28;20711;-67
2022/02/04 10:27:16;;;;;;;6.23;5.93;;;10.10;99.90;;;;;;5066652;28;20494;-67
2022/02/04 10:29:44;;;;;;;6.47;6.17;;;10.10;99.90;;;;;;5085254;28;20710;-66
2022/02/04 10:32:09;;;;;;;5.87;5.57;;;10.10;99.90;;;;;;5067582;28;20678;-67
2022/02/04 10:34:37;;;;;;;6.20;5.90;;;10.10;99.90;;;;;;5067875;28;20166;-67
2022/02/04 10:37:16;;;;;;;6.00;5.70;;;10.00;99.90;;;;;;5067669;28;20201;-66
2022/02/04 10:42:43;;;;;;;6.60;6.30;;;10.10;99.90;;;;;;5087728;28;20177;-66
2022/02/04 10:48:02;;;;;;;6.17;5.87;;;10.00;99.90;;;;;;5070043;28;20210;-68
2022/02/04 11:02:02;;;;;;;6.23;5.93;;;10.00;99.90;;;;;;5065592;28;20623;-66
2022/02/04 11:35:23;;;;;;;6.17;5.87;;;10.20;99.90;;;;;;5057268;28;20186;-66
2022/02/04 11:52:08;;;;;;;6.37;5.93;;;9.70;99.90;;;;;;5061383;28;20178;-66
2022/02/04 11:54:51;;;;;;;6.50;6.10;;;9.70;99.90;;;;;;5067093;28;20670;-66
2022/02/04 11:57:20;;;;;;;6.00;5.70;;;9.70;99.90;;;;;;5061712;28;20202;-67
2022/02/04 11:59:50;;;;;;;6.10;5.80;;;9.70;99.90;;;;;;5051765;28;20171;-67
2022/02/04 12:02:29;;;;;;;6.30;5.97;;;9.60;99.90;;;;;;5056472;28;20674;-67
2022/02/04 12:05:15;;;;;;;6.67;6.37;;;9.50;99.90;;;;;;5071600;28;20174;-67
2022/02/04 12:07:43;;;;;;;6.37;5.90;;;9.50;99.90;;;;;;5063481;28;20202;-67
2022/02/04 12:10:11;;;;;;;6.57;6.17;;;9.50;99.90;;;;;;5059490;28;20189;-67
2022/02/04 12:12:55;;;;;;;6.73;6.43;;;9.50;99.90;;;;;;5071747;28;20205;-68
2022/02/04 12:15:42;;;;;;;6.40;6.10;;;9.40;99.90;;;;;;5071369;28;20178;-67
2022/02/04 12:18:09;;;;;;;7.47;7.07;;;9.30;99.90;;;;;;5061429;28;20698;-66
2022/02/04 12:20:47;;;;;;;7.50;7.10;;;9.30;99.90;;;;;;5051138;28;20174;-67
2022/02/04 12:23:41;;;;;;;6.50;6.20;;;9.20;99.90;;;;;;5061214;28;20205;-66
2022/02/04 12:26:10;;;;;;;6.17;5.87;;;9.20;99.90;;;;;;5070555;28;20177;-67
2022/02/04 12:28:59;;;;;;;6.70;6.30;;;9.20;99.90;;;;;;5058608;28;20217;-67
2022/02/04 12:31:29;;;;;;;6.20;5.90;;;9.10;99.90;;;;;;5063941;28;20273;-67
2022/02/04 12:34:12;;;;;;;5.97;5.60;;;9.10;99.90;;;;;;5069515;28;20174;-67
2022/02/04 12:36:52;;;;;;;6.70;6.30;;;9.20;99.90;;;;;;5064886;28;20178;-68
2022/02/04 12:39:23;;;;;;;7.37;6.97;;;9.30;99.90;;;;;;5054140;28;20208;-67
2022/02/04 12:41:51;;;;;;;6.77;6.27;;;9.30;99.90;;;;;;5070828;28;20652;-67
2022/02/04 12:44:23;;;;;;;6.37;6.07;;;9.40;99.90;;;;;;5070286;28;20178;-66
2022/02/04 12:46:55;;;;;;;6.30;6.00;;;9.50;99.90;;;;;;5072088;28;20194;-66
2022/02/04 12:49:27;;;;;;;7.37;6.87;;;9.60;99.90;;;;;;5066736;28;20186;-65
2022/02/04 12:52:19;;;;;;;7.37;6.97;;;9.60;99.90;;;;;;5050746;28;20179;-67
2022/02/04 12:54:58;;;;;;;6.80;6.40;;;9.60;99.90;;;;;;5059360;28;20184;-66
2022/02/04 12:57:34;;;;;;;7.77;7.37;;;9.60;99.90;;;;;;5072105;28;20205;-67
2022/02/04 13:10:41;;;;;;;7.10;6.70;;;9.50;99.90;;;;;;5058480;28;20557;-67
2022/02/04 13:13:16;;;;;;;7.40;6.90;;;9.50;99.90;;;;;;5059485;28;20202;-67
2022/02/04 13:15:43;;;;;;;6.63;6.23;;;9.50;99.90;;;;;;5071811;28;20177;-66
2022/02/04 13:18:11;;;;;;;7.93;7.33;;;9.50;99.90;;;;;;5061660;28;20210;-66
2022/02/04 13:20:41;;;;;;;7.30;6.90;;;9.50;99.90;;;;;;5050131;28;20625;-66
2022/02/04 13:23:14;;;;;;;7.10;6.70;;;9.50;99.90;;;;;;5055260;28;20179;-66
2022/02/04 13:25:45;;;;;;;8.27;7.77;;;9.40;99.90;;;;;;5070225;28;20170;-66
2022/02/04 13:28:15;;;;;;;6.90;6.50;;;9.40;99.90;;;;;;5060398;28;20216;-66
2022/02/04 13:30:59;;;;;;;6.30;6.00;;;9.40;99.90;;;;;;5051458;28;20178;-66
2022/02/04 13:33:27;;;;;;;6.77;6.27;;;9.40;99.90;;;;;;5063234;28;20756;-66
2022/02/04 13:35:58;;;;;;;7.27;6.77;;;9.40;99.90;;;;;;5070117;28;20217;-66
2022/02/04 13:38:31;;;;;;;8.27;7.27;;;9.30;99.90;;;;;;5058391;28;20217;-66
2022/02/04 13:41:11;;;;;;;6.83;6.43;;;9.30;99.90;;;;;;5055676;28;20170;-67
2022/02/04 13:43:53;;;;;;;7.20;6.80;;;9.30;99.90;;;;;;5069913;28;20174;-66
2022/02/04 13:46:33;;;;;;;7.13;6.80;;;9.30;99.90;;;;;;5062944;28;20190;-66
2022/02/04 13:54:59;;;;;;;6.83;6.43;;;9.60;99.90;;;;;;5080637;28;20194;-66
2022/02/04 14:00:43;;;;;;;6.30;6.00;;;9.80;99.90;;;;;;5071052;28;20178;-66
2022/02/04 14:03:16;;;;;;;6.00;5.70;;;9.90;99.90;;;;;;5049487;28;20193;-66
2022/02/04 14:05:50;;;;;;;6.80;6.40;;;9.80;99.90;;;;;;5050365;28;20179;-67
2022/02/04 14:08:20;;;;;;;6.67;6.37;;;9.80;99.90;;;;;;5050919;28;20222;-66
2022/02/04 14:10:52;;;;;;;6.40;6.07;;;9.70;99.90;;;;;;5069501;28;20201;-66
2022/02/04 14:13:25;;;;;;;5.97;5.60;;;9.70;99.90;;;;;;5070534;28;20171;-66
2022/02/04 14:15:55;;;;;;;7.60;7.00;;;9.70;99.90;;;;;;5050860;28;20195;-67
2022/02/04 14:18:22;;;;;;;6.40;5.97;;;9.80;99.90;;;;;;5050904;28;20206;-66
2022/02/04 14:20:48;;;;;;;6.10;5.80;;;9.90;99.90;;;;;;5067714;28;20178;-66
2022/02/04 14:23:15;;;;;;;10.73;7.03;;;9.90;99.90;;;;;;5056903;28;20701;-66
2022/02/04 14:26:04;;;;;;;11.77;7.77;;;9.90;99.90;;;;;;5053451;28;20171;-66
2022/02/04 14:31:05;;;;;;;6.13;5.83;;;10.10;99.90;;;;;;5072846;28;20186;-67
2022/02/04 14:36:12;;;;;;;6.67;6.13;;;10.10;99.90;;;;;;5053677;28;20628;-66
2022/02/04 15:00:20;;;;;;;6.57;6.17;;;9.90;99.90;;;;;;5073534;28;20315;-66
2022/02/04 15:05:17;;;;;;;7.13;6.13;;;9.90;99.90;;;;;;5073081;28;20253;-66
2022/02/04 15:07:44;;;;;;;5.87;5.57;;;9.90;99.90;;;;;;5073774;28;20267;-67
2022/02/04 15:10:15;;;;;;;7.20;5.77;;;9.90;99.90;;;;;;5071076;28;20170;-67
2022/02/04 15:12:43;;;;;;;5.77;5.47;;;9.90;99.90;;;;;;5053856;28;20639;-67
2022/02/04 15:15:09;;;;;;;6.47;5.83;;;9.90;99.90;;;;;;5054900;28;20202;-66
2022/02/04 15:17:35;;;;;;;7.00;5.23;;;9.90;99.90;;;;;;5073716;28;20198;-67
2022/02/04 15:20:00;;;;;;;6.23;5.73;;;9.90;99.90;;;;;;5071950;28;20162;-67
2022/02/04 15:22:27;;;;;;;5.73;5.43;;;9.90;99.90;;;;;;5072347;28;20261;-66
2022/02/04 15:24:58;;;;;;;6.53;5.90;;;9.90;99.90;;;;;;5073057;28;20166;-66
2022/02/04 15:27:24;;;;;;;5.30;5.00;;;9.90;99.90;;;;;;5053480;28;20193;-66
2022/02/04 15:29:52;;;;;;;6.33;5.83;;;9.90;99.90;;;;;;5053312;28;20167;-66
2022/02/04 15:32:17;;;;;;;7.53;7.13;;;9.70;99.90;;;;;;5071687;28;20179;-66
2022/02/04 15:34:43;;;;;;;6.73;6.33;;;9.60;99.90;;;;;;5059963;28;20190;-67
2022/02/04 15:37:08;;;;;;;6.50;6.10;;;9.40;99.90;;;;;;5052104;28;20198;-66
2022/02/04 15:39:34;;;;;;;6.77;6.37;;;9.20;99.90;;;;;;5064263;28;20212;-66
2022/02/04 15:42:10;;;;;;;7.53;7.17;;;9.00;99.90;;;;;;5072663;28;20249;-66
2022/02/04 15:44:39;;;;;;;6.43;6.03;;;8.80;99.90;;;;;;5065184;28;20170;-66
2022/02/04 16:00:48;;;;;;;7.80;7.30;;;8.20;99.90;;;;;;5072712;28;20172;-66
2022/02/04 16:05:45;;;;;;;6.70;6.40;;;8.10;99.90;;;;;;5052893;28;20221;-66
2022/02/04 16:08:15;;;;;;;8.27;7.87;;;8.00;99.90;;;;;;5050987;28;20666;-66
2022/02/04 16:10:54;;;;;;;6.20;5.90;;;8.00;99.90;;;;;;5066800;28;20208;-66
2022/02/04 16:15:56;;;;;;;7.93;7.53;;;8.00;99.90;;;;;;5055577;28;20183;-65
2022/02/04 16:18:27;;;;;;;7.27;6.80;;;8.00;99.90;;;;;;5051040;28;20203;-66
2022/02/04 16:23:28;;;;;;;8.53;8.13;;;8.00;99.90;;;;;;5072619;28;20167;-66
2022/02/04 16:26:24;;;;;;;7.00;6.60;;;8.00;99.90;;;;;;5056491;28;20233;-66
2022/02/04 16:28:45;;;;;;;7.13;6.73;;;8.00;99.90;;;;;;5051487;28;20199;-66
2022/02/04 16:31:14;;;;;;;9.20;8.60;;;8.00;99.90;;;;;;5068737;28;20544;-65
2022/02/04 16:33:44;;;;;;;9.07;8.27;;;8.00;99.90;;;;;;5072064;28;20245;-68
2022/02/04 16:36:15;;;;;;;8.20;7.70;;;8.00;99.90;;;;;;5055228;28;20179;-65
2022/02/04 16:38:52;;;;;;;8.50;7.90;;;8.00;99.90;;;;;;5052222;28;20207;-65
2022/02/04 16:41:24;;;;;;;8.27;7.67;;;7.90;99.90;;;;;;5068532;28;20226;-65
2022/02/04 16:43:50;;;;;;;21.63;20.27;;;7.90;99.90;;;;;;5070100;28;20253;-66
2022/02/04 16:46:16;;;;;;;9.63;9.00;;;7.80;99.90;;;;;;5055778;28;20671;-66
2022/02/04 16:48:41;;;;;;;9.70;9.30;;;7.80;99.90;;;;;;5053909;28;20205;-65
2022/02/04 16:51:07;;;;;;;15.73;14.90;;;7.30;99.90;;;;;;5057851;28;20183;-65
2022/02/04 16:53:34;;;;;;;9.80;9.20;;;6.90;99.90;;;;;;5050277;28;20170;-65
2022/02/04 16:55:59;;;;;;;7.53;7.13;;;6.60;99.90;;;;;;5062268;28;20178;-65
2022/02/04 16:58:25;;;;;;;7.17;6.77;;;6.40;99.90;;;;;;5061809;28;20769;-66
2022/02/04 17:00:51;;;;;;;7.43;7.13;;;6.30;99.90;;;;;;5052106;28;20174;-66
2022/02/04 17:03:16;;;;;;;6.07;5.87;;;6.10;99.90;;;;;;5058172;28;20201;-66
2022/02/04 17:08:12;;;;;;;6.80;6.50;;;5.80;99.90;;;;;;5066365;28;20230;-66
2022/02/04 17:10:43;;;;;;;6.87;6.50;;;5.70;99.90;;;;;;5052026;28;20193;-69
2022/02/04 17:13:11;;;;;;;6.90;6.60;;;5.60;99.90;;;;;;5053810;28;20182;-66
2022/02/04 17:15:38;;;;;;;6.80;6.50;;;5.60;99.90;;;;;;5071552;28;20265;-65
2022/02/04 17:18:06;;;;;;;7.03;6.73;;;5.50;99.90;;;;;;5066435;28;20206;-65
2022/02/04 17:20:32;;;;;;;22.40;21.47;;;5.40;99.90;;;;;;5052219;28;20175;-66
2022/02/04 17:23:02;;;;;;;7.40;6.90;;;5.30;99.90;;;;;;5051638;28;20182;-67
2022/02/04 17:25:29;;;;;;;7.27;6.87;;;5.30;99.90;;;;;;5072292;28;20171;-67
2022/02/04 17:27:57;;;;;;;7.03;6.60;;;5.20;99.90;;;;;;5053173;28;20218;-67
2022/02/04 17:30:26;;;;;;;9.60;7.47;;;5.20;99.90;;;;;;5051366;28;20194;-67
2022/02/04 17:32:52;;;;;;;7.10;6.80;;;5.20;99.90;;;;;;5067810;28;20182;-67
2022/02/04 17:35:20;;;;;;;7.83;7.43;;;5.20;99.90;;;;;;5071531;28;20596;-67
2022/02/04 17:37:46;;;;;;;7.23;6.90;;;5.20;99.90;;;;;;5053791;28;20207;-67
2022/02/04 17:40:15;;;;;;;7.50;7.10;;;5.20;99.90;;;;;;5051017;28;20178;-67
2022/02/04 17:42:43;;;;;;;6.83;6.53;;;5.20;99.90;;;;;;5063561;28;20181;-67
2022/02/04 17:45:10;;;;;;;7.70;7.30;;;5.20;99.90;;;;;;5072312;28;20197;-67
2022/02/04 17:47:39;;;;;;;7.90;7.40;;;5.20;99.90;;;;;;5071544;28;20208;-67
2022/02/04 17:50:12;;;;;;;7.63;7.23;;;5.30;99.90;;;;;;5071145;28;20172;-67
2022/02/04 17:52:49;;;;;;;8.20;7.70;;;5.30;99.90;;;;;;5057991;28;20581;-67
2022/02/04 17:55:25;;;;;;;8.00;7.60;;;5.30;99.90;;;;;;5060794;28;20173;-67
2022/02/04 17:57:56;;;;;;;7.60;7.20;;;5.30;99.90;;;;;;5061991;28;20297;-67
2022/02/04 18:08:11;;;;;;;10.37;9.67;;;5.00;99.90;;;;;;5063954;28;20244;-67
2022/02/04 18:10:37;;;;;;;10.33;9.73;;;4.90;99.90;;;;;;5053890;28;20178;-67
2022/02/04 18:13:04;;;;;;;10.80;9.97;;;4.90;99.90;;;;;;5063576;28;20170;-67
2022/02/04 18:15:30;;;;;;;9.10;8.60;;;4.90;99.90;;;;;;5074882;28;20632;-68
2022/02/04 18:17:56;;;;;;;8.87;8.47;;;4.80;99.90;;;;;;5065839;28;20210;-67
2022/02/04 18:20:22;;;;;;;9.57;8.87;;;4.70;99.90;;;;;;5062234;28;20636;-67
2022/02/04 18:22:51;;;;;;;12.33;11.63;;;4.60;99.90;;;;;;5069544;28;20559;-67
2022/02/04 18:25:18;;;;;;;8.97;8.47;;;4.50;99.90;;;;;;5074954;28;20166;-68
2022/02/04 18:27:47;;;;;;;8.57;8.07;;;4.40;99.90;;;;;;5068498;28;20733;-67
2022/02/04 18:30:15;;;;;;;9.07;8.47;;;4.40;99.90;;;;;;5053217;28;20179;-67
2022/02/04 18:32:46;;;;;;;8.60;8.10;;;4.40;99.90;;;;;;5056674;28;20181;-68
2022/02/04 18:35:11;;;;;;;8.17;7.67;;;4.40;99.90;;;;;;5073844;28;20178;-68
2022/02/04 18:37:41;;;;;;;7.70;7.30;;;4.30;99.90;;;;;;5070186;28;20201;-67
2022/02/04 18:45:16;;;;;;;8.17;7.70;;;4.00;99.90;;;;;;5074253;28;20194;-67
2022/02/04 18:47:59;;;;;;;7.63;7.20;;;4.00;99.90;;;;;;5071904;28;20670;-67
2022/02/04 18:50:46;;;;;;;7.33;7.03;;;3.90;99.90;;;;;;5054227;28;20177;-67
2022/02/04 18:53:30;;;;;;;10.03;9.40;;;3.90;99.90;;;;;;5054012;28;20175;-67
2022/02/04 18:58:22;;;;;;;7.53;7.23;;;3.80;99.90;;;;;;5061201;28;20644;-67
2022/02/04 19:00:50;;;;;;;9.00;8.50;;;3.80;99.90;;;;;;5072078;28;20189;-67
2022/02/04 19:03:22;;;;;;;8.50;8.00;;;3.80;99.90;;;;;;5053656;28;20163;-67
2022/02/04 19:08:40;;;;;;;7.93;7.53;;;3.70;99.90;;;;;;5055742;28;20213;-67
2022/02/04 19:11:06;;;;;;;9.53;8.87;;;3.70;99.90;;;;;;5055007;28;20178;-67
2022/02/04 19:13:42;;;;;;;11.10;10.30;;;3.80;99.90;;;;;;5072306;28;20487;-68
2022/02/04 19:16:18;;;;;;;9.90;8.10;;;3.80;99.90;;;;;;5069479;28;20232;-67
2022/02/04 19:21:40;;;;;;;9.23;8.07;;;3.90;99.90;;;;;;5054190;28;20184;-67
2022/02/04 19:24:06;;;;;;;8.37;7.67;;;3.90;99.90;;;;;;5053275;28;20194;-67
2022/02/04 19:26:32;;;;;;;10.83;8.03;;;3.90;99.90;;;;;;5066626;28;20671;-67
2022/02/04 19:28:58;;;;;;;9.40;8.70;;;3.80;99.90;;;;;;5061087;28;20473;-67
2022/02/04 19:31:24;;;;;;;8.40;8.00;;;3.80;99.90;;;;;;5053538;28;20186;-67
2022/02/04 19:33:50;;;;;;;8.67;8.07;;;3.80;99.90;;;;;;5062532;28;20236;-67
2022/02/04 19:36:16;;;;;;;9.40;8.77;;;3.80;99.90;;;;;;5073337;28;20194;-66
2022/02/04 19:38:42;;;;;;;13.30;11.33;;;3.70;99.90;;;;;;5062971;28;20278;-67
2022/02/04 19:41:17;;;;;;;9.63;8.70;;;3.70;99.90;;;;;;5053627;28;20167;-64
2022/02/04 19:43:44;;;;;;;14.43;9.80;;;3.70;99.90;;;;;;5061379;28;20202;-66
2022/02/04 19:46:15;;;;;;;16.23;13.90;;;3.60;99.90;;;;;;5073051;28;20180;-66
2022/02/04 19:48:48;;;;;;;13.00;11.93;;;3.60;99.90;;;;;;5065245;28;20743;-64
2022/02/04 20:25:44;;;;;;;16.37;11.10;;;3.40;99.90;;;;;;5052746;28;20301;-66
2022/02/04 20:28:12;;;;;;;12.60;11.30;;;3.40;99.90;;;;;;5068578;28;20638;-67
2022/02/04 20:30:39;;;;;;;11.43;10.33;;;3.50;99.90;;;;;;5072350;28;20601;-67
2022/02/04 20:33:06;;;;;;;11.73;10.73;;;3.50;99.90;;;;;;5056627;28;20183;-67
2022/02/04 20:35:31;;;;;;;12.30;11.20;;;3.50;99.90;;;;;;5050983;28;20182;-66